Cassagnes-Bégonhès Airport

METAR LFCR TAF LFCR
-2 °C
°C
-
°C
11m
Alter
07:41:04
LT
06:41
UTC
0 ft

1.000

2.000

3.000

4.000

5.000

OVC 2.300
MVFR
<?= Yii::t('app', 'Wind direction') ?> <?= Yii::t('app', 'of'); ?>
290°
08:12
Sonne auf
86%
Luftfeuchtigkeit
Windscherung
Geschlossen/Schnee
RWY-Sichtweite
RWY Zustand
Vert. Sichtweite
Min. Sichtbarkeit
CAVOK
Trend
Korrektur
Besonderer Bericht
1019 hPa
QNH
METAR LFCR 280630Z AUTO 29005KT 260V360 9999 OVC023 M02/M04 Q1019 NOSIG
Himmel bedeckt
2 kt
2 kt
07:00
VFR
8 kt
08:00
VFR
8 kt
09:00
VFR
8 kt
10:00
VFR
8 kt
11:00
VFR
8 kt
12:00
VFR
8 kt
13:00
VFR
8 kt
10 km+
Sichtweite
2.300 ft
Wolkendecke
5 kt
Wind
metar-taf.com/LFIG

Metar-Taf.com

Visueller Decoder

Wir und Dritte verfolgen dein Internetverhalten auf unserer Website mit Cookies. Wenn du fortfährst, gehen wir davon aus, dass du mit unserer Cookie-Richtlinie einverstanden bist.